createdAt,value
2022-09-16T00:01:37.600Z,21.56
2022-09-16T00:04:04.125Z,21.64
2022-09-16T00:06:31.275Z,21.63
2022-09-16T00:09:01.497Z,21.48
2022-09-16T00:11:31.130Z,21.12
2022-09-16T00:13:57.608Z,21.07
2022-09-16T00:16:27.320Z,21.19
2022-09-16T00:18:56.139Z,21.26
2022-09-16T00:21:23.667Z,21.26
2022-09-16T00:23:50.717Z,21.03
2022-09-16T00:26:18.120Z,20.95
2022-09-16T00:28:47.557Z,20.69
2022-09-16T00:31:14.092Z,20.78
2022-09-16T00:33:40.768Z,21.08
2022-09-16T00:36:09.418Z,21.23
2022-09-16T00:38:36.113Z,21.31
2022-09-16T00:41:03.885Z,21.38
2022-09-16T00:44:00.162Z,21.47
2022-09-16T00:46:37.219Z,21.53
2022-09-16T00:49:15.169Z,21.60
2022-09-16T00:51:44.985Z,21.68
2022-09-16T00:54:12.178Z,21.70
2022-09-16T00:56:44.581Z,21.74
2022-09-16T00:59:18.820Z,21.70
2022-09-16T01:01:46.964Z,21.72
2022-09-16T01:04:28.200Z,21.68
2022-09-16T01:06:55.930Z,21.74
2022-09-16T01:09:25.147Z,21.79
2022-09-16T01:11:51.837Z,21.79
2022-09-16T01:14:21.778Z,21.79
2022-09-16T01:17:01.652Z,21.72
2022-09-16T01:20:09.557Z,21.77
2022-09-16T01:22:41.557Z,21.74
2022-09-16T01:25:22.285Z,21.74
2022-09-16T01:28:16.892Z,21.74
2022-09-16T01:30:43.306Z,21.71
2022-09-16T01:33:28.045Z,21.73
2022-09-16T01:36:07.333Z,21.74
2022-09-16T01:39:04.934Z,21.56
2022-09-16T01:41:50.167Z,21.53
2022-09-16T01:44:16.574Z,21.46
2022-09-16T01:46:58.279Z,21.47
2022-09-16T01:49:30.764Z,21.38
2022-09-16T01:52:24.963Z,21.19
2022-09-16T01:55:02.183Z,20.79
2022-09-16T01:57:50.715Z,20.18
2022-09-16T02:00:18.025Z,20.13
2022-09-16T02:02:53.848Z,19.86
2022-09-16T02:05:41.509Z,19.47
2022-09-16T02:08:21.493Z,19.34
2022-09-16T02:10:55.565Z,19.15
2022-09-16T02:13:39.135Z,19.19
2022-09-16T02:16:14.972Z,19.24
2022-09-16T02:18:48.890Z,19.47
2022-09-16T02:21:16.515Z,19.94
2022-09-16T02:23:52.722Z,20.12
2022-09-16T02:26:25.896Z,20.42
2022-09-16T02:28:55.895Z,20.53
2022-09-16T02:31:35.989Z,20.69
2022-09-16T02:34:13.010Z,20.68
2022-09-16T02:36:43.550Z,21.02
2022-09-16T02:39:16.758Z,21.16
2022-09-16T02:41:43.929Z,21.26
2022-09-16T02:44:11.908Z,21.29
2022-09-16T02:47:00.833Z,21.47
2022-09-16T02:49:42.723Z,21.41
2022-09-16T02:52:31.902Z,21.30
2022-09-16T02:55:15.532Z,21.48
2022-09-16T02:57:42.922Z,21.60
2022-09-16T03:00:10.102Z,21.57
2022-09-16T03:02:36.737Z,21.64
2022-09-16T03:05:04.372Z,21.68
2022-09-16T03:07:30.907Z,21.46
2022-09-16T03:09:57.512Z,21.58
2022-09-16T03:12:50.140Z,21.70
2022-09-16T03:15:33.287Z,21.73
2022-09-16T03:18:05.709Z,21.79
2022-09-16T03:21:06.405Z,21.61
2022-09-16T03:23:51.258Z,21.14
2022-09-16T03:26:34.379Z,21.30
2022-09-16T03:29:23.312Z,21.43
2022-09-16T03:32:19.526Z,21.42
2022-09-16T03:34:59.477Z,21.09
2022-09-16T03:37:29.906Z,21.06
2022-09-16T03:40:00.071Z,21.05
2022-09-16T03:42:26.620Z,21.22
2022-09-16T03:44:56.129Z,21.30
2022-09-16T03:47:22.794Z,21.19
2022-09-16T03:49:49.273Z,21.41
2022-09-16T03:52:15.790Z,21.47
2022-09-16T03:54:42.274Z,21.55
2022-09-16T03:57:09.557Z,21.49
2022-09-16T03:59:36.093Z,21.62
2022-09-16T04:02:02.659Z,21.59
2022-09-16T04:04:29.191Z,21.71
2022-09-16T04:06:55.668Z,21.73
2022-09-16T04:09:22.210Z,21.75
2022-09-16T04:11:48.745Z,21.70
2022-09-16T04:14:15.381Z,21.75
2022-09-16T04:16:45.145Z,21.37
2022-09-16T04:19:13.871Z,20.52
2022-09-16T04:21:41.443Z,20.51
2022-09-16T04:24:12.622Z,19.62
2022-09-16T04:26:39.700Z,19.40
2022-09-16T04:29:06.244Z,19.34
2022-09-16T04:31:32.761Z,19.52
2022-09-16T04:34:02.385Z,18.97
2022-09-16T04:36:32.662Z,18.90
2022-09-16T04:38:59.340Z,18.93
2022-09-16T04:41:26.792Z,18.61
2022-09-16T04:43:58.993Z,18.51
2022-09-16T04:46:27.403Z,18.19
2022-09-16T04:48:56.296Z,18.13
2022-09-16T04:51:23.650Z,18.12
2022-09-16T04:53:50.143Z,18.06
2022-09-16T04:56:22.305Z,18.38
2022-09-16T04:58:52.245Z,18.73
2022-09-16T05:01:30.171Z,18.95
2022-09-16T05:04:02.610Z,19.17
2022-09-16T05:06:36.995Z,19.13
2022-09-16T05:09:04.916Z,19.15
2022-09-16T05:11:34.337Z,19.36
2022-09-16T05:14:03.120Z,19.84
2022-09-16T05:16:30.209Z,19.91
2022-09-16T05:18:59.607Z,19.98
2022-09-16T05:21:28.600Z,19.87
2022-09-16T05:23:59.559Z,20.06
2022-09-16T05:26:28.725Z,20.10
2022-09-16T05:28:55.578Z,19.94
2022-09-16T05:31:28.385Z,19.79
2022-09-16T05:34:00.750Z,19.81
2022-09-16T05:36:30.730Z,19.35
2022-09-16T05:41:44.954Z,19.38
2022-09-16T05:44:11.919Z,18.48
2022-09-16T05:46:38.477Z,18.06
2022-09-16T05:49:04.980Z,18.22
2022-09-16T05:51:31.460Z,17.62
2022-09-16T05:53:59.255Z,17.73
2022-09-16T05:56:28.115Z,17.27
2022-09-16T05:58:56.899Z,16.96
2022-09-16T06:01:26.478Z,17.19
2022-09-16T06:03:53.694Z,17.19
2022-09-16T06:06:38.293Z,16.96
2022-09-16T06:09:08.724Z,16.66
2022-09-16T06:11:41.106Z,16.54
2022-09-16T06:14:09.270Z,16.38
2022-09-16T06:16:36.919Z,16.38
2022-09-16T06:19:07.534Z,16.31
2022-09-16T06:21:34.014Z,16.20
2022-09-16T06:24:00.491Z,16.41
2022-09-16T06:26:27.757Z,16.41
2022-09-16T06:28:55.676Z,16.52
2022-09-16T06:31:24.795Z,16.52
2022-09-16T06:33:52.269Z,16.47
2022-09-16T06:36:22.645Z,16.66
2022-09-16T06:38:50.454Z,16.67
2022-09-16T06:41:19.279Z,16.90
2022-09-16T06:43:46.029Z,17.31
2022-09-16T06:46:20.409Z,17.26
2022-09-16T06:48:50.095Z,17.36
2022-09-16T06:51:19.389Z,17.63
2022-09-16T06:53:46.164Z,17.75
2022-09-16T06:56:15.722Z,17.64
2022-09-16T06:58:43.782Z,17.98
2022-09-16T07:01:13.696Z,18.20
2022-09-16T07:03:42.825Z,18.30
2022-09-16T07:06:10.924Z,18.74
2022-09-16T07:08:38.734Z,18.67
2022-09-16T07:11:08.736Z,18.80
2022-09-16T07:13:35.334Z,19.21
2022-09-16T07:16:13.767Z,19.29
2022-09-16T07:18:41.679Z,19.69
2022-09-16T07:21:12.778Z,19.95
2022-09-16T07:23:40.647Z,19.69
2022-09-16T07:26:08.736Z,19.71
2022-09-16T07:28:36.846Z,20.06
2022-09-16T07:31:06.577Z,20.15
2022-09-16T07:33:44.194Z,20.37
2022-09-16T07:36:13.807Z,20.33
2022-09-16T07:38:40.627Z,20.51
2022-09-16T07:41:13.602Z,20.77
2022-09-16T07:43:42.055Z,20.96
2022-09-16T07:46:11.395Z,21.06
2022-09-16T07:48:38.194Z,21.12
2022-09-16T07:51:11.401Z,21.32
2022-09-16T07:53:38.971Z,21.57
2022-09-16T07:56:15.921Z,21.18
2022-09-16T07:58:43.749Z,21.36
2022-09-16T08:01:10.241Z,21.52
2022-09-16T08:03:38.756Z,21.61
2022-09-16T08:06:09.059Z,21.77
2022-09-16T08:08:35.690Z,21.80
2022-09-16T08:11:03.292Z,20.92
2022-09-16T08:13:31.711Z,21.09
2022-09-16T08:16:06.174Z,21.39
2022-09-16T08:18:33.766Z,21.70
2022-09-16T08:21:13.686Z,21.79
2022-09-16T08:23:40.987Z,21.26
2022-09-16T08:26:08.855Z,21.53
2022-09-16T08:28:45.275Z,21.62
2022-09-16T08:31:19.234Z,21.67
2022-09-16T08:33:46.739Z,21.68
2022-09-16T08:36:15.818Z,21.71
2022-09-16T08:38:44.293Z,21.93
2022-09-16T08:41:13.458Z,22.28
2022-09-16T08:43:53.948Z,22.48
2022-09-16T08:46:31.165Z,21.83
2022-09-16T08:49:05.110Z,21.77
2022-09-16T08:51:32.564Z,22.06
2022-09-16T08:54:05.883Z,22.09
2022-09-16T08:56:34.608Z,22.14
2022-09-16T08:59:03.901Z,21.99
2022-09-16T09:01:44.847Z,22.22
2022-09-16T09:04:13.188Z,22.47
2022-09-16T09:06:42.261Z,22.57
2022-09-16T09:09:41.160Z,22.67
2022-09-16T09:12:15.970Z,22.68
2022-09-16T09:14:59.693Z,22.53
2022-09-16T09:18:04.041Z,22.48
2022-09-16T09:21:10.608Z,22.59
2022-09-16T09:24:15.480Z,22.67
2022-09-16T09:27:16.807Z,22.62
2022-09-16T09:30:04.421Z,22.79
2022-09-16T09:32:48.111Z,23.06
2022-09-16T09:35:36.207Z,23.08
2022-09-16T09:38:33.482Z,23.44
2022-09-16T09:41:31.822Z,23.45
2022-09-16T09:44:21.298Z,23.28
2022-09-16T09:46:57.001Z,23.39
2022-09-16T09:49:36.932Z,23.46
2022-09-16T09:52:19.723Z,23.80
2022-09-16T09:54:50.690Z,23.54
2022-09-16T09:57:39.497Z,23.71
2022-09-16T10:00:13.645Z,23.77
2022-09-16T10:02:47.428Z,23.80
2022-09-16T10:05:25.941Z,23.68
2022-09-16T10:08:03.756Z,23.87
2022-09-16T10:10:34.833Z,23.34
2022-09-16T10:13:09.490Z,23.53
2022-09-16T10:15:36.520Z,23.45
2022-09-16T10:18:12.814Z,23.51
2022-09-16T10:20:44.054Z,23.34
2022-09-16T10:23:14.688Z,23.35
2022-09-16T10:25:42.643Z,23.52
2022-09-16T10:28:24.879Z,23.39
2022-09-16T10:30:55.346Z,22.95
2022-09-16T10:33:30.302Z,23.08
2022-09-16T10:36:02.353Z,23.14
2022-09-16T10:38:41.664Z,23.19
2022-09-16T10:41:15.567Z,23.29
2022-09-16T10:43:53.558Z,23.62
2022-09-16T10:46:20.821Z,23.35
2022-09-16T10:48:50.184Z,23.00
2022-09-16T10:51:25.183Z,23.21
2022-09-16T10:53:56.465Z,23.06
2022-09-16T10:56:26.232Z,22.91
2022-09-16T10:59:10.320Z,22.85
2022-09-16T11:01:49.799Z,22.98
2022-09-16T11:04:30.931Z,22.89
2022-09-16T11:07:13.388Z,23.09
2022-09-16T11:09:59.216Z,23.17
2022-09-16T11:12:46.942Z,23.02
2022-09-16T11:15:24.588Z,23.52
2022-09-16T11:18:17.229Z,23.18
2022-09-16T11:21:16.053Z,23.02
2022-09-16T11:24:16.602Z,23.35
2022-09-16T11:27:30.338Z,23.33
2022-09-16T11:30:18.245Z,23.71
2022-09-16T11:33:06.312Z,23.31
2022-09-16T11:36:01.258Z,23.29
2022-09-16T11:38:49.078Z,23.19
2022-09-16T11:41:43.069Z,23.11
2022-09-16T11:44:47.060Z,23.35
2022-09-16T11:47:46.079Z,22.71
2022-09-16T11:50:54.035Z,22.20
2022-09-16T11:53:46.106Z,21.48
2022-09-16T11:56:40.481Z,20.11
2022-09-16T11:59:35.072Z,19.64
2022-09-16T12:02:23.209Z,19.62
2022-09-16T12:05:12.948Z,19.65
2022-09-16T12:08:01.159Z,20.27
2022-09-16T12:10:38.160Z,20.91
2022-09-16T12:13:29.863Z,21.45
2022-09-16T12:16:03.591Z,21.83
2022-09-16T12:18:38.068Z,20.84
2022-09-16T12:21:18.674Z,21.17
2022-09-16T12:23:52.605Z,21.37
2022-09-16T12:26:24.251Z,21.09
2022-09-16T12:29:00.479Z,21.38
2022-09-16T12:32:03.574Z,21.84
2022-09-16T12:34:41.056Z,22.06
2022-09-16T12:37:10.530Z,22.53
2022-09-16T12:39:36.959Z,23.13
2022-09-16T12:42:45.877Z,23.22
2022-09-16T12:45:32.147Z,23.17
2022-09-16T12:48:40.033Z,23.49
2022-09-16T12:51:30.040Z,23.40
2022-09-16T12:54:20.251Z,23.70
2022-09-16T12:57:03.798Z,23.70
2022-09-16T12:59:51.967Z,23.24
2022-09-16T13:02:30.183Z,23.78
2022-09-16T13:05:04.236Z,24.02
2022-09-16T13:07:36.448Z,23.67
2022-09-16T13:10:15.297Z,23.10
2022-09-16T13:12:44.671Z,22.56
2022-09-16T13:15:37.912Z,21.89
2022-09-16T13:18:16.166Z,21.47
2022-09-16T13:20:53.375Z,20.88
2022-09-16T13:23:24.796Z,21.28
2022-09-16T13:25:59.234Z,21.44
2022-09-16T13:28:45.818Z,21.42
2022-09-16T13:31:12.314Z,21.22
2022-09-16T13:33:41.233Z,21.32
2022-09-16T13:36:21.838Z,21.54
2022-09-16T13:38:56.530Z,21.18
2022-09-16T13:41:30.649Z,20.96
2022-09-16T13:43:57.515Z,20.92
2022-09-16T13:46:28.925Z,20.68
2022-09-16T13:48:58.602Z,20.36
2022-09-16T13:51:26.099Z,20.04
2022-09-16T13:53:53.808Z,19.88
2022-09-16T13:56:46.043Z,19.59
2022-09-16T13:59:34.346Z,19.33
2022-09-16T14:02:18.496Z,18.97
2022-09-16T14:05:20.365Z,18.96
2022-09-16T14:07:59.141Z,18.61
2022-09-16T14:10:35.530Z,18.89
2022-09-16T14:13:18.768Z,18.93
2022-09-16T14:15:50.133Z,19.21
2022-09-16T14:18:22.432Z,19.24
2022-09-16T14:21:06.629Z,19.08
2022-09-16T14:23:33.979Z,19.11
2022-09-16T14:26:19.207Z,19.28
2022-09-16T14:28:46.105Z,18.95
2022-09-16T14:31:22.646Z,18.98
2022-09-16T14:34:01.008Z,19.06
2022-09-16T14:36:35.608Z,18.78
2022-09-16T14:39:11.587Z,18.82
2022-09-16T14:41:44.278Z,18.58
2022-09-16T14:44:26.170Z,18.85
2022-09-16T14:47:07.523Z,18.92
2022-09-16T14:49:38.370Z,19.01
2022-09-16T14:52:05.244Z,19.20
2022-09-16T14:54:32.174Z,19.16
2022-09-16T14:57:07.849Z,19.13
2022-09-16T14:59:38.551Z,19.05
2022-09-16T15:02:31.127Z,19.43
2022-09-16T15:05:18.940Z,19.58
2022-09-16T15:08:12.256Z,19.69
2022-09-16T15:12:46.601Z,19.68
2022-09-16T15:13:26.188Z,19.25
2022-09-16T15:15:58.133Z,19.20
2022-09-16T15:18:29.542Z,18.97
2022-09-16T15:21:10.790Z,19.27
2022-09-16T15:23:40.415Z,18.78
2022-09-16T15:26:17.946Z,19.03
2022-09-16T15:29:00.055Z,19.32
2022-09-16T15:31:34.342Z,19.42
2022-09-16T15:34:22.729Z,18.82
2022-09-16T15:36:57.935Z,18.94
2022-09-16T15:39:32.362Z,18.60
2022-09-16T15:42:18.469Z,18.59
2022-09-16T15:44:54.386Z,18.36
2022-09-16T15:47:26.205Z,18.11
2022-09-16T15:50:00.912Z,17.90
2022-09-16T15:52:27.897Z,18.03
2022-09-16T15:55:02.346Z,17.80
2022-09-16T15:57:34.852Z,17.48
2022-09-16T16:00:10.044Z,17.54
2022-09-16T16:02:49.533Z,17.83
2022-09-16T16:05:20.287Z,17.68
2022-09-16T16:07:56.184Z,17.81
2022-09-16T16:10:32.070Z,17.88
2022-09-16T16:13:01.180Z,18.11
2022-09-16T16:15:30.833Z,17.62
2022-09-16T16:18:01.508Z,17.92
2022-09-16T16:20:28.437Z,18.32
2022-09-16T16:22:55.228Z,17.93
2022-09-16T16:25:21.859Z,18.26
2022-09-16T16:27:48.341Z,18.43
2022-09-16T16:30:14.768Z,18.58
2022-09-16T16:32:41.223Z,18.80
2022-09-16T16:35:08.212Z,19.17
2022-09-16T16:37:46.094Z,19.25
2022-09-16T16:40:14.594Z,19.51
2022-09-16T16:42:41.039Z,19.30
2022-09-16T16:45:07.940Z,19.30
2022-09-16T16:47:34.436Z,19.19
2022-09-16T16:50:00.873Z,19.17
2022-09-16T16:52:27.296Z,19.13
2022-09-16T16:54:53.752Z,19.30
2022-09-16T16:57:20.179Z,18.53
2022-09-16T16:59:46.610Z,18.41
2022-09-16T17:02:13.137Z,18.49
2022-09-16T17:04:39.791Z,18.28
2022-09-16T17:07:25.329Z,18.22
2022-09-16T17:09:53.715Z,18.13
2022-09-16T17:12:20.326Z,18.59
2022-09-16T17:14:46.811Z,18.61
2022-09-16T17:17:13.252Z,18.26
2022-09-16T17:19:39.688Z,18.57
2022-09-16T17:22:06.131Z,17.70
2022-09-16T17:24:32.669Z,17.77
2022-09-16T17:26:59.143Z,17.99
2022-09-16T17:29:25.586Z,17.80
2022-09-16T17:31:52.016Z,17.68
2022-09-16T17:34:18.451Z,17.91
2022-09-16T17:36:46.439Z,18.05
2022-09-16T17:39:16.492Z,18.10
2022-09-16T17:41:44.490Z,18.43
2022-09-16T17:44:13.113Z,18.31
2022-09-16T17:46:41.436Z,18.33
2022-09-16T17:49:14.097Z,18.50
2022-09-16T17:51:40.809Z,18.78
2022-09-16T17:54:07.280Z,18.82
2022-09-16T17:56:33.968Z,18.89
2022-09-16T17:59:00.448Z,19.22
2022-09-16T18:01:27.354Z,17.96
2022-09-16T18:03:55.720Z,18.15
2022-09-16T18:06:28.281Z,18.24
2022-09-16T18:08:54.873Z,18.02
2022-09-16T18:11:22.216Z,17.66
2022-09-16T18:13:57.462Z,17.18
2022-09-16T18:16:25.814Z,16.93
2022-09-16T18:18:55.072Z,17.21
2022-09-16T18:21:23.783Z,16.99
2022-09-16T18:23:56.168Z,16.55
2022-09-16T18:26:23.706Z,16.35
2022-09-16T18:29:09.451Z,16.20
2022-09-16T18:31:38.062Z,15.92
2022-09-16T18:34:05.405Z,16.05
2022-09-16T18:36:31.850Z,16.27
2022-09-16T18:38:58.937Z,16.11
2022-09-16T18:41:27.754Z,15.99
2022-09-16T18:43:57.756Z,16.06
2022-09-16T18:46:27.605Z,16.09
2022-09-16T18:48:54.939Z,16.19
2022-09-16T18:51:29.081Z,16.06
2022-09-16T18:53:58.971Z,15.65
2022-09-16T18:56:26.125Z,15.81
2022-09-16T18:59:17.056Z,15.73
2022-09-16T19:01:42.186Z,15.33
2022-09-16T19:04:11.871Z,15.48
2022-09-16T19:06:41.722Z,15.29
2022-09-16T19:09:11.877Z,15.44
2022-09-16T19:11:40.459Z,15.34
2022-09-16T19:14:08.885Z,15.36
2022-09-16T19:16:39.480Z,15.32
2022-09-16T19:19:08.181Z,15.39
2022-09-16T19:21:34.647Z,15.76
2022-09-16T19:24:03.667Z,15.70
2022-09-16T19:26:34.531Z,15.59
2022-09-16T19:29:01.462Z,15.51
2022-09-16T19:31:29.105Z,15.30
2022-09-16T19:33:56.163Z,15.09
2022-09-16T19:36:25.923Z,15.10
2022-09-16T19:38:53.536Z,15.05
2022-09-16T19:41:23.723Z,15.18
2022-09-16T19:43:54.998Z,15.16
2022-09-16T19:46:22.280Z,15.24
2022-09-16T19:48:49.666Z,15.06
2022-09-16T19:51:19.249Z,14.85
2022-09-16T19:53:46.647Z,15.06
2022-09-16T19:56:18.924Z,15.00
2022-09-16T19:58:45.364Z,15.09
2022-09-16T20:01:14.888Z,14.90
2022-09-16T20:03:42.772Z,14.84
2022-09-16T20:06:10.455Z,14.75
2022-09-16T20:08:38.624Z,14.76
2022-09-16T20:11:08.047Z,14.62
2022-09-16T20:13:34.975Z,14.63
2022-09-16T20:16:03.309Z,14.68
2022-09-16T20:18:32.027Z,14.75
2022-09-16T20:21:06.459Z,14.78
2022-09-16T20:23:33.818Z,14.85
2022-09-16T20:26:03.076Z,15.03
2022-09-16T20:28:34.183Z,15.00
2022-09-16T20:31:00.976Z,14.82
2022-09-16T20:33:31.335Z,14.79
2022-09-16T20:36:09.845Z,14.78
2022-09-16T20:38:38.516Z,14.55
2022-09-16T20:41:09.548Z,14.44
2022-09-16T20:43:37.048Z,14.36
2022-09-16T20:46:22.611Z,14.36
2022-09-16T20:48:52.788Z,14.34
2022-09-16T20:51:21.115Z,14.50
2022-09-16T20:54:00.904Z,14.69
2022-09-16T20:56:37.651Z,14.87
2022-09-16T20:59:04.373Z,14.74
2022-09-16T21:01:32.132Z,14.69
2022-09-16T21:04:01.753Z,14.57
2022-09-16T21:06:28.380Z,14.71
2022-09-16T21:08:56.881Z,14.78
2022-09-16T21:11:23.800Z,14.96
2022-09-16T21:13:58.935Z,15.10
2022-09-16T21:16:27.044Z,14.99
2022-09-16T21:18:55.260Z,15.05
2022-09-16T21:21:23.459Z,14.98
2022-09-16T21:23:51.701Z,15.34
2022-09-16T21:26:22.478Z,15.10
2022-09-16T21:28:54.699Z,15.33
2022-09-16T21:31:21.194Z,15.36
2022-09-16T21:33:47.684Z,15.22
2022-09-16T21:36:14.142Z,15.78
2022-09-16T21:38:41.444Z,15.18
2022-09-16T21:41:12.231Z,15.51
2022-09-16T21:43:44.083Z,15.78
2022-09-16T21:46:16.690Z,15.94
2022-09-16T21:48:43.258Z,16.45
2022-09-16T21:51:12.747Z,16.60
2022-09-16T21:53:40.530Z,16.78
2022-09-16T21:56:10.102Z,17.08
2022-09-16T21:58:36.538Z,17.34
2022-09-16T22:01:21.438Z,17.62
2022-09-16T22:03:53.910Z,17.61
2022-09-16T22:06:20.600Z,17.72
2022-09-16T22:08:49.057Z,17.53
2022-09-16T22:11:18.424Z,17.64
2022-09-16T22:13:45.187Z,17.79
2022-09-16T22:16:18.610Z,17.90
2022-09-16T22:18:45.122Z,17.83
2022-09-16T22:21:14.060Z,17.84
2022-09-16T22:23:41.303Z,17.57
2022-09-16T22:26:11.868Z,17.59
2022-09-16T22:28:39.226Z,17.73
2022-09-16T22:31:20.986Z,17.88
2022-09-16T22:33:49.221Z,18.06
2022-09-16T22:36:20.624Z,18.13
2022-09-16T22:38:48.696Z,18.15
2022-09-16T22:41:16.571Z,18.25
2022-09-16T22:43:45.737Z,18.36
2022-09-16T22:46:15.931Z,18.47
2022-09-16T22:48:43.398Z,18.42
2022-09-16T22:51:14.404Z,18.50
2022-09-16T22:53:42.268Z,18.51
2022-09-16T22:56:21.465Z,18.66
2022-09-16T22:58:52.960Z,18.66
2022-09-16T23:01:25.605Z,18.76
2022-09-16T23:03:55.638Z,18.51
2022-09-16T23:06:23.890Z,18.73
2022-09-16T23:08:50.839Z,18.75
2022-09-16T23:11:21.664Z,18.79
2022-09-16T23:13:48.155Z,18.81
2022-09-16T23:16:18.166Z,18.68
2022-09-16T23:18:46.126Z,18.75
2022-09-16T23:21:15.756Z,18.83
2022-09-16T23:23:44.911Z,18.85
2022-09-16T23:26:18.548Z,18.63
2022-09-16T23:28:45.779Z,17.95
2022-09-16T23:31:16.119Z,18.12
2022-09-16T23:33:44.231Z,17.87
2022-09-16T23:36:13.083Z,17.73
2022-09-16T23:38:41.526Z,17.66
2022-09-16T23:41:22.965Z,17.72
2022-09-16T23:43:50.306Z,17.68
2022-09-16T23:46:20.424Z,17.63
2022-09-16T23:48:47.676Z,17.33
2022-09-16T23:51:14.247Z,17.48
2022-09-16T23:53:41.640Z,17.53
2022-09-16T23:56:10.432Z,17.59
2022-09-16T23:58:36.868Z,17.28
